Time;durP1;ratioP1;P1;durP2;ratioP2;P2;SDS_P1;SDS_P2;PMS_P1;PMS_P2;Temp;Humidity;BMP_temperature;BMP_pressure;BME280_temperature;BME280_humidity;BME280_pressure;Samples;Min_cycle;Max_cycle;Signal;HPM_P1;HPM_P2
2022/03/26 00:00:30;;;;;;;48.57;19.23;;;1.00;77.30;;;;;;4173116;28;20274;-56
2022/03/26 00:02:31;;;;;;;46.33;19.57;;;1.10;77.00;;;;;;4173886;28;20266;-55
2022/03/26 00:04:32;;;;;;;42.27;19.63;;;1.10;77.90;;;;;;4174378;28;20278;-54
2022/03/26 00:06:33;;;;;;;43.63;19.53;;;1.10;77.50;;;;;;4188882;28;20313;-56
2022/03/26 00:08:35;;;;;;;57.63;22.07;;;1.10;77.70;;;;;;4189968;28;20265;-56
2022/03/26 00:10:36;;;;;;;54.30;21.60;;;1.10;78.70;;;;;;4190630;28;20311;-55
2022/03/26 00:12:39;;;;;;;47.37;20.30;;;1.10;78.60;;;;;;4190044;28;20311;-53
2022/03/26 00:14:40;;;;;;;50.63;22.40;;;1.00;78.10;;;;;;4189528;28;20327;-52
2022/03/26 00:16:41;;;;;;;48.50;23.03;;;1.00;79.10;;;;;;4190332;28;20261;-56
2022/03/26 00:18:42;;;;;;;48.83;22.87;;;1.00;78.80;;;;;;4188501;28;20323;-55
2022/03/26 00:20:44;;;;;;;55.27;23.20;;;1.00;79.10;;;;;;4180340;28;20399;-55
2022/03/26 00:22:45;;;;;;;51.70;22.53;;;1.00;79.40;;;;;;4172734;28;20274;-56
2022/03/26 00:24:46;;;;;;;47.23;21.03;;;0.90;81.50;;;;;;4174125;28;20278;-56
2022/03/26 00:26:48;;;;;;;48.67;23.80;;;0.90;79.90;;;;;;4188019;28;20339;-56
2022/03/26 00:28:49;;;;;;;44.53;22.33;;;0.80;81.00;;;;;;4190146;28;20320;-55
2022/03/26 00:30:51;;;;;;;46.07;22.07;;;0.80;81.30;;;;;;4184301;28;20339;-58
2022/03/26 00:32:52;;;;;;;48.80;22.93;;;0.80;81.20;;;;;;4189722;28;20607;-57
2022/03/26 00:34:53;;;;;;;44.50;22.37;;;0.70;81.30;;;;;;4189615;28;20286;-57
2022/03/26 00:36:54;;;;;;;44.70;21.37;;;0.70;81.50;;;;;;4190433;28;20265;-54
2022/03/26 00:38:55;;;;;;;44.57;21.33;;;0.70;81.50;;;;;;4189363;28;20723;-57
2022/03/26 00:40:56;;;;;;;43.47;21.00;;;0.70;82.70;;;;;;4190251;28;20314;-52
2022/03/26 00:42:59;;;;;;;45.77;21.27;;;0.70;82.50;;;;;;4189242;28;20269;-53
2022/03/26 00:45:00;;;;;;;49.63;22.20;;;0.70;82.50;;;;;;4188126;28;20288;-54
2022/03/26 00:47:02;;;;;;;45.00;21.23;;;0.70;82.50;;;;;;4187895;28;20970;-51
2022/03/26 00:49:03;;;;;;;47.67;20.23;;;0.70;82.40;;;;;;4189135;28;20334;-59
2022/03/26 00:51:04;;;;;;;45.13;20.70;;;0.70;83.70;;;;;;4178540;28;20270;-55
2022/03/26 00:53:05;;;;;;;43.67;20.00;;;0.70;84.80;;;;;;4172950;28;20730;-57
2022/03/26 00:55:07;;;;;;;40.70;19.13;;;0.70;85.10;;;;;;4173882;28;20761;-54
2022/03/26 00:57:09;;;;;;;45.13;19.70;;;0.70;83.70;;;;;;4184110;28;20273;-58
2022/03/26 00:59:11;;;;;;;37.73;18.60;;;0.60;82.80;;;;;;4188609;28;20817;-52
2022/03/26 01:01:12;;;;;;;36.63;18.00;;;0.40;84.00;;;;;;4187300;28;20316;-55
2022/03/26 01:03:15;;;;;;;43.93;18.00;;;0.20;85.70;;;;;;4173214;28;20336;-52
2022/03/26 01:05:16;;;;;;;47.43;19.53;;;0.00;86.30;;;;;;4173045;28;20316;-58
2022/03/26 01:07:17;;;;;;;43.67;19.43;;;-0.10;86.00;;;;;;4173984;28;20344;-63
2022/03/26 01:09:18;;;;;;;42.20;19.80;;;-0.20;86.70;;;;;;4172392;28;20359;-65
2022/03/26 01:11:20;;;;;;;47.97;20.87;;;-0.20;87.40;;;;;;4173570;28;20335;-64
2022/03/26 01:13:23;;;;;;;44.10;19.77;;;-0.20;88.20;;;;;;4172363;28;20316;-57
2022/03/26 01:15:24;;;;;;;44.73;18.93;;;-0.20;89.00;;;;;;4186989;28;20269;-58
2022/03/26 01:17:25;;;;;;;52.63;20.60;;;-0.20;89.20;;;;;;4188883;28;20656;-63
2022/03/26 01:19:26;;;;;;;42.10;18.93;;;-0.20;88.70;;;;;;4187647;28;20299;-56
2022/03/26 01:21:27;;;;;;;42.83;18.27;;;-0.30;89.40;;;;;;4189323;28;20738;-57
2022/03/26 01:23:29;;;;;;;46.13;18.50;;;-0.30;89.50;;;;;;4188906;28;20261;-51
2022/03/26 01:25:30;;;;;;;42.27;19.57;;;-0.30;89.60;;;;;;4189885;28;20765;-57
2022/03/26 01:27:32;;;;;;;40.93;20.20;;;-0.40;90.40;;;;;;4187026;28;20297;-54
2022/03/26 01:29:33;;;;;;;45.23;23.30;;;-0.40;90.50;;;;;;4190165;28;20278;-55
2022/03/26 01:31:35;;;;;;;44.97;21.50;;;-0.40;91.60;;;;;;4191817;28;20753;-57
2022/03/26 01:33:37;;;;;;;42.77;21.43;;;-0.40;91.30;;;;;;4191604;28;20414;-55
2022/03/26 01:35:38;;;;;;;48.30;22.13;;;-0.50;92.70;;;;;;4192285;28;20803;-56
2022/03/26 01:37:39;;;;;;;44.93;21.70;;;-0.50;92.70;;;;;;4193333;28;20350;-51
2022/03/26 01:39:40;;;;;;;43.17;21.13;;;-0.50;92.60;;;;;;4188964;28;20374;-57
2022/03/26 01:41:41;;;;;;;42.60;21.13;;;-0.60;92.70;;;;;;4176336;28;20274;-51
2022/03/26 01:43:42;;;;;;;41.07;18.87;;;-0.60;92.80;;;;;;4176104;28;21164;-54
2022/03/26 01:45:44;;;;;;;49.80;21.73;;;-0.70;93.20;;;;;;4176584;28;20254;-60
2022/03/26 01:47:45;;;;;;;50.87;20.70;;;-0.80;93.60;;;;;;4175772;28;20721;-51
2022/03/26 01:49:46;;;;;;;46.93;19.60;;;-0.90;93.50;;;;;;4175552;28;20262;-51
2022/03/26 01:51:48;;;;;;;41.13;20.17;;;-1.00;93.70;;;;;;4176422;28;20340;-53
2022/03/26 01:53:51;;;;;;;48.43;20.83;;;-1.10;92.80;;;;;;4174846;28;20308;-66
2022/03/26 01:55:52;;;;;;;45.20;19.57;;;-1.20;92.70;;;;;;4176357;28;20270;-54
2022/03/26 01:57:54;;;;;;;44.73;21.03;;;-1.20;93.30;;;;;;4174916;28;20348;-55
2022/03/26 01:59:56;;;;;;;47.03;21.13;;;-1.30;93.30;;;;;;4178003;28;20328;-64
2022/03/26 02:01:57;;;;;;;46.57;20.47;;;-1.30;93.60;;;;;;4174744;28;20339;-57
2022/03/26 02:03:58;;;;;;;55.70;21.07;;;-1.40;94.40;;;;;;4176410;28;20320;-51
2022/03/26 02:05:59;;;;;;;53.50;21.57;;;-1.40;94.80;;;;;;4175380;28;20278;-54
2022/03/26 02:08:03;;;;;;;49.53;20.80;;;-1.40;94.80;;;;;;4176048;28;20336;-55
2022/03/26 02:10:06;;;;;;;54.77;22.13;;;-1.40;94.70;;;;;;4173855;28;20308;-52
2022/03/26 02:12:27;;;;;;;50.87;20.53;;;-1.40;94.90;;;;;;4175611;28;20304;-57
2022/03/26 02:14:28;;;;;;;;;;;-1.20;94.60;;;;;;4174777;28;20286;-64
2022/03/26 02:16:32;;;;;;;36.95;19.73;;;-1.20;97.10;;;;;;4176506;28;19915;-54
2022/03/26 02:18:33;;;;;;;47.93;21.10;;;-1.10;95.50;;;;;;4175866;28;20037;-53
2022/03/26 02:20:34;;;;;;;44.40;20.87;;;-1.10;94.90;;;;;;4176036;28;20316;-53
2022/03/26 02:22:37;;;;;;;50.93;21.63;;;-1.10;94.50;;;;;;4174874;28;20332;-53
2022/03/26 02:24:38;;;;;;;46.57;21.57;;;-1.00;94.40;;;;;;4175756;28;20266;-59
2022/03/26 02:26:39;;;;;;;48.50;22.47;;;-1.00;95.40;;;;;;4174018;28;20347;-57
2022/03/26 02:28:41;;;;;;;46.27;20.53;;;-0.90;95.30;;;;;;4174764;28;20319;-52
2022/03/26 02:30:42;;;;;;;41.80;19.23;;;-0.90;95.20;;;;;;4175568;28;20359;-55
2022/03/26 02:32:43;;;;;;;45.73;21.63;;;-0.90;94.80;;;;;;4175016;28;20380;-58
2022/03/26 02:34:44;;;;;;;49.17;20.27;;;-1.00;94.80;;;;;;4177034;28;20266;-66
2022/03/26 02:36:45;;;;;;;52.27;22.97;;;-1.10;95.10;;;;;;4174746;28;20266;-61
2022/03/26 02:38:46;;;;;;;47.93;20.30;;;-1.10;95.40;;;;;;4178129;28;20266;-66
2022/03/26 02:40:48;;;;;;;52.27;22.40;;;-1.20;95.20;;;;;;4190699;28;20680;-57
2022/03/26 02:42:49;;;;;;;47.77;20.97;;;-1.20;95.70;;;;;;4191490;28;20266;-58
2022/03/26 02:44:50;;;;;;;49.13;22.03;;;-1.20;95.70;;;;;;4191003;28;20324;-61
2022/03/26 02:46:51;;;;;;;46.40;21.33;;;-1.10;95.90;;;;;;4192614;28;20338;-65
2022/03/26 02:48:52;;;;;;;50.57;20.80;;;-1.10;95.50;;;;;;4190819;28;20830;-58
2022/03/26 02:50:54;;;;;;;51.00;22.13;;;-1.00;95.50;;;;;;4192274;28;20257;-64
2022/03/26 02:52:55;;;;;;;51.30;21.70;;;-1.00;95.40;;;;;;4190926;28;20257;-61
2022/03/26 02:54:56;;;;;;;39.07;20.57;;;-1.00;95.50;;;;;;4189406;28;20753;-65
2022/03/26 02:56:57;;;;;;;44.80;20.50;;;-1.00;96.10;;;;;;4190887;28;20314;-61
2022/03/26 02:58:58;;;;;;;49.47;21.37;;;-0.90;96.00;;;;;;4188838;28;20257;-62
2022/03/26 03:00:59;;;;;;;45.93;21.13;;;-0.90;95.90;;;;;;4174952;28;20670;-58
2022/03/26 03:03:00;;;;;;;48.40;21.30;;;-0.90;96.00;;;;;;4173887;28;20729;-55
2022/03/26 03:05:02;;;;;;;52.87;22.00;;;-0.80;96.00;;;;;;4176088;28;20262;-59
2022/03/26 03:07:04;;;;;;;49.17;22.07;;;-0.90;96.10;;;;;;4174156;28;20286;-57
2022/03/26 03:09:07;;;;;;;45.37;19.70;;;-0.90;97.00;;;;;;4175395;28;20351;-54
2022/03/26 03:11:08;;;;;;;35.77;17.00;;;-1.10;97.20;;;;;;4173808;28;20343;-54
2022/03/26 03:13:10;;;;;;;31.97;16.33;;;-1.10;96.80;;;;;;4190909;28;20797;-66
2022/03/26 03:15:12;;;;;;;37.97;17.07;;;-1.30;96.70;;;;;;4190619;28;20330;-62
2022/03/26 03:17:13;;;;;;;34.10;17.20;;;-1.30;97.20;;;;;;4191288;28;20282;-58
2022/03/26 03:19:15;;;;;;;34.00;17.13;;;-1.40;96.90;;;;;;4186904;28;20303;-59
2022/03/26 03:21:17;;;;;;;35.90;16.03;;;-1.50;97.30;;;;;;4175495;28;20265;-51
2022/03/26 03:23:18;;;;;;;37.17;15.97;;;-1.50;97.10;;;;;;4173296;28;20273;-58
2022/03/26 03:25:19;;;;;;;38.97;17.50;;;-1.60;97.20;;;;;;4174384;28;20355;-64
2022/03/26 03:27:21;;;;;;;36.07;16.87;;;-1.70;97.80;;;;;;4174442;28;20728;-57
2022/03/26 03:29:22;;;;;;;38.47;17.23;;;-1.70;98.50;;;;;;4174578;28;20352;-58
2022/03/26 03:31:23;;;;;;;42.87;17.27;;;-1.80;98.50;;;;;;4177356;28;20583;-51
2022/03/26 03:33:25;;;;;;;42.20;18.80;;;-1.80;98.50;;;;;;4190092;28;20265;-67
2022/03/26 03:35:26;;;;;;;39.53;17.40;;;-1.90;98.90;;;;;;4191304;28;20277;-55
2022/03/26 03:37:27;;;;;;;44.00;16.90;;;-1.90;99.70;;;;;;4190122;28;20285;-53
2022/03/26 03:39:28;;;;;;;43.07;17.47;;;-2.00;99.40;;;;;;4189273;28;20286;-63
2022/03/26 03:41:29;;;;;;;38.47;17.77;;;-2.00;99.90;;;;;;4190432;28;20602;-57
2022/03/26 03:43:30;;;;;;;42.07;19.50;;;-2.00;99.70;;;;;;4190964;28;20285;-65
2022/03/26 03:45:33;;;;;;;44.90;20.23;;;-2.10;99.90;;;;;;4189637;28;20924;-66
2022/03/26 03:47:34;;;;;;;43.60;18.63;;;-2.20;99.90;;;;;;4191237;28;20338;-54
2022/03/26 03:49:35;;;;;;;40.23;18.80;;;-2.30;99.90;;;;;;4189849;28;20257;-53
2022/03/26 03:51:36;;;;;;;47.70;19.20;;;-2.30;99.90;;;;;;4190387;28;20334;-61
2022/03/26 03:53:37;;;;;;;47.00;19.90;;;-2.30;99.90;;;;;;4189572;28;20265;-63
2022/03/26 03:55:39;;;;;;;44.60;19.83;;;-2.40;99.90;;;;;;4175762;28;20272;-57
2022/03/26 03:57:42;;;;;;;51.60;18.97;;;-2.40;99.90;;;;;;4174555;28;20753;-64
2022/03/26 03:59:43;;;;;;;47.03;20.73;;;-2.40;99.90;;;;;;4176601;28;20323;-67
2022/03/26 04:01:44;;;;;;;48.80;20.00;;;-2.40;99.90;;;;;;4190791;28;20303;-67
2022/03/26 04:03:45;;;;;;;46.47;20.37;;;-2.40;99.90;;;;;;4190128;28;20261;-64
2022/03/26 04:05:46;;;;;;;50.60;19.70;;;-2.30;99.90;;;;;;4191166;28;20315;-60
2022/03/26 04:07:48;;;;;;;52.77;21.07;;;-2.20;99.90;;;;;;4189938;28;20354;-67
2022/03/26 04:09:49;;;;;;;49.10;19.33;;;-2.10;99.90;;;;;;4189519;28;20706;-54
2022/03/26 04:11:50;;;;;;;48.07;20.43;;;-2.10;99.90;;;;;;4189755;28;20822;-58
2022/03/26 04:13:53;;;;;;;53.67;21.17;;;-2.20;99.90;;;;;;4190628;28;20285;-67
2022/03/26 04:15:54;;;;;;;53.37;22.10;;;-2.10;99.90;;;;;;4188762;28;21682;-55
2022/03/26 04:17:56;;;;;;;50.97;21.37;;;-2.10;99.90;;;;;;4190986;28;20269;-66
2022/03/26 04:19:57;;;;;;;44.27;19.40;;;-2.00;99.90;;;;;;4187751;28;21031;-55
2022/03/26 04:21:58;;;;;;;46.87;20.73;;;-1.90;99.90;;;;;;4190736;28;20277;-64
2022/03/26 04:23:59;;;;;;;47.10;19.47;;;-1.80;99.90;;;;;;4189045;28;20339;-56
2022/03/26 04:26:01;;;;;;;49.23;21.37;;;-1.80;99.90;;;;;;4190487;28;20307;-52
2022/03/26 04:28:03;;;;;;;47.63;20.70;;;-1.70;99.90;;;;;;4189554;28;20292;-55
2022/03/26 04:30:05;;;;;;;52.70;21.27;;;-1.70;99.90;;;;;;4190286;28;20319;-55
2022/03/26 04:32:06;;;;;;;43.20;20.57;;;-1.60;99.90;;;;;;4189809;28;20257;-50
2022/03/26 04:34:07;;;;;;;46.70;20.20;;;-1.60;99.90;;;;;;4190090;28;20303;-57
2022/03/26 04:36:09;;;;;;;45.30;19.83;;;-1.50;99.90;;;;;;4176392;28;20278;-53
2022/03/26 04:38:10;;;;;;;42.17;19.17;;;-1.40;99.90;;;;;;4171836;28;20352;-59
2022/03/26 04:40:12;;;;;;;48.30;21.33;;;-1.20;99.90;;;;;;4177759;28;20266;-57
2022/03/26 04:42:13;;;;;;;56.70;20.07;;;-0.90;99.90;;;;;;4189456;28;20284;-55
2022/03/26 04:44:15;;;;;;;49.67;20.50;;;-0.70;99.90;;;;;;4190063;28;20820;-53
2022/03/26 04:46:16;;;;;;;45.30;21.03;;;-0.60;99.90;;;;;;4168887;28;20278;-50
2022/03/26 04:48:17;;;;;;;46.43;21.30;;;-0.30;99.90;;;;;;4167298;28;20354;-53
2022/03/26 04:50:18;;;;;;;44.20;20.17;;;-0.10;99.90;;;;;;4179715;28;20324;-61
2022/03/26 04:52:19;;;;;;;51.83;20.63;;;0.30;99.90;;;;;;4173521;28;21211;-59
2022/03/26 04:54:20;;;;;;;56.13;23.37;;;0.60;99.60;;;;;;4174937;28;20692;-65
2022/03/26 04:56:22;;;;;;;51.87;23.63;;;0.80;98.40;;;;;;4179877;28;20756;-54
2022/03/26 04:58:23;;;;;;;52.40;22.80;;;0.90;97.70;;;;;;4171875;28;20782;-62
2022/03/26 05:00:24;;;;;;;42.90;18.43;;;1.00;98.00;;;;;;4173327;28;20273;-54
2022/03/26 05:02:26;;;;;;;49.43;20.50;;;1.20;97.20;;;;;;4172649;28;20285;-62
2022/03/26 05:04:27;;;;;;;41.00;18.47;;;1.50;97.00;;;;;;4173187;28;20262;-66
2022/03/26 05:06:28;;;;;;;36.50;17.83;;;1.70;96.20;;;;;;4190504;28;20274;-58
2022/03/26 05:08:29;;;;;;;41.20;18.13;;;1.80;95.50;;;;;;4192385;28;20964;-58
2022/03/26 05:10:31;;;;;;;40.30;19.37;;;1.90;95.10;;;;;;4193367;28;20269;-63
2022/03/26 05:12:32;;;;;;;37.83;18.03;;;1.80;94.70;;;;;;4207666;28;20281;-61
2022/03/26 05:14:33;;;;;;;43.67;19.97;;;1.90;94.40;;;;;;4194102;28;20265;-57
2022/03/26 05:16:34;;;;;;;45.03;20.70;;;2.00;94.30;;;;;;4192647;28;20262;-62
2022/03/26 05:18:38;;;;;;;40.30;19.27;;;2.00;93.80;;;;;;4193836;28;21229;-58
2022/03/26 05:20:40;;;;;;;36.73;18.60;;;2.10;94.00;;;;;;4181321;28;20273;-63
2022/03/26 05:22:42;;;;;;;55.23;20.63;;;2.20;93.60;;;;;;4186449;28;20293;-57
2022/03/26 05:24:43;;;;;;;72.93;31.20;;;2.30;93.20;;;;;;4187221;28;20269;-63
2022/03/26 05:26:44;;;;;;;67.20;30.13;;;2.30;92.70;;;;;;4176349;28;20323;-58
2022/03/26 05:28:45;;;;;;;61.43;27.77;;;2.30;92.40;;;;;;4174771;28;20297;-66
2022/03/26 05:30:52;;;;;;;53.73;24.60;;;2.30;92.50;;;;;;4176058;28;20290;-61
2022/03/26 05:32:53;;;;;;;57.80;24.03;;;2.40;92.20;;;;;;4175243;28;20285;-58
2022/03/26 05:34:54;;;;;;;56.03;24.40;;;2.40;92.00;;;;;;4175928;28;20316;-63
2022/03/26 05:36:55;;;;;;;54.07;23.30;;;2.60;92.20;;;;;;4176148;28;20327;-57
2022/03/26 05:38:57;;;;;;;47.23;22.40;;;2.80;91.60;;;;;;4176220;28;21096;-53
2022/03/26 05:40:58;;;;;;;55.90;23.53;;;2.80;91.40;;;;;;4190167;28;20319;-60
2022/03/26 05:42:59;;;;;;;58.83;24.30;;;2.90;91.20;;;;;;4190036;28;20347;-57
2022/03/26 05:45:03;;;;;;;46.20;22.37;;;3.20;91.00;;;;;;4174683;28;20282;-55
2022/03/26 05:47:04;;;;;;;48.77;22.93;;;3.50;90.80;;;;;;4174475;28;20323;-61
2022/03/26 05:49:05;;;;;;;45.10;22.33;;;4.30;90.40;;;;;;4175545;28;20930;-57
2022/03/26 05:51:07;;;;;;;44.73;21.97;;;4.80;87.20;;;;;;4175529;28;20339;-57
2022/03/26 05:53:08;;;;;;;46.70;23.13;;;5.10;84.40;;;;;;4176560;28;20290;-57
2022/03/26 05:55:11;;;;;;;54.77;24.87;;;5.50;83.70;;;;;;4175153;28;20281;-53
2022/03/26 05:57:13;;;;;;;47.23;23.50;;;5.90;81.60;;;;;;4176411;28;20500;-61
2022/03/26 05:59:14;;;;;;;49.60;25.30;;;6.40;80.10;;;;;;4174704;28;20746;-59
2022/03/26 06:01:15;;;;;;;52.57;24.20;;;6.70;78.50;;;;;;4175349;28;20298;-59
2022/03/26 06:03:18;;;;;;;48.40;25.13;;;7.00;77.10;;;;;;4192788;28;20293;-55
2022/03/26 06:05:20;;;;;;;53.50;25.73;;;7.50;76.20;;;;;;4175499;28;20259;-60
2022/03/26 06:07:21;;;;;;;54.17;25.43;;;7.90;74.60;;;;;;4175387;28;20759;-60
2022/03/26 06:09:22;;;;;;;60.33;26.07;;;8.40;73.00;;;;;;4189497;28;20443;-59
2022/03/26 06:11:23;;;;;;;56.10;26.10;;;8.70;70.80;;;;;;4192075;28;20029;-59
2022/03/26 06:13:25;;;;;;;56.23;26.73;;;7.70;69.80;;;;;;4181465;28;20090;-58
2022/03/26 06:15:26;;;;;;;56.47;27.53;;;6.90;71.40;;;;;;4177431;28;20041;-58
2022/03/26 06:17:27;;;;;;;60.27;27.77;;;6.50;72.60;;;;;;4176868;28;20076;-59
2022/03/26 06:19:28;;;;;;;62.87;29.67;;;6.40;73.20;;;;;;4175284;28;20044;-60
2022/03/26 06:21:30;;;;;;;69.80;30.33;;;6.50;72.50;;;;;;4174355;28;20041;-58
2022/03/26 06:23:31;;;;;;;62.53;30.13;;;6.10;73.30;;;;;;4175500;28;20049;-61
2022/03/26 06:25:33;;;;;;;63.10;29.33;;;6.50;73.50;;;;;;4188907;28;20041;-61
2022/03/26 06:27:34;;;;;;;59.60;27.90;;;6.10;73.50;;;;;;4175454;28;20102;-57
2022/03/26 06:29:36;;;;;;;76.70;31.17;;;6.40;73.60;;;;;;4174141;28;20075;-65
2022/03/26 06:31:38;;;;;;;52.27;25.63;;;6.60;72.70;;;;;;4169238;28;20473;-58
2022/03/26 06:33:39;;;;;;;60.67;27.63;;;6.70;72.40;;;;;;4173784;28;20266;-58
2022/03/26 06:35:40;;;;;;;58.97;26.83;;;6.60;72.20;;;;;;4175945;28;20258;-61
2022/03/26 06:37:41;;;;;;;63.30;26.43;;;7.00;72.60;;;;;;4173424;28;20294;-56
2022/03/26 06:39:42;;;;;;;63.03;27.67;;;7.40;71.20;;;;;;4171159;28;20344;-60
2022/03/26 06:41:44;;;;;;;58.17;27.23;;;7.10;70.90;;;;;;4158250;28;20266;-59
2022/03/26 06:43:45;;;;;;;53.40;25.57;;;7.10;71.30;;;;;;4174478;28;20277;-59
2022/03/26 06:45:46;;;;;;;54.90;25.87;;;7.10;71.70;;;;;;4174781;28;20274;-60
2022/03/26 06:47:48;;;;;;;44.10;24.60;;;7.20;71.60;;;;;;4174113;28;20457;-61
2022/03/26 06:49:49;;;;;;;53.03;24.97;;;7.30;71.10;;;;;;4175092;28;20274;-58
2022/03/26 06:51:50;;;;;;;51.37;26.07;;;7.30;71.10;;;;;;4172881;28;21226;-58
2022/03/26 06:53:51;;;;;;;44.83;24.30;;;7.40;70.80;;;;;;4175749;28;20293;-61
2022/03/26 06:55:52;;;;;;;50.23;25.60;;;7.50;70.40;;;;;;4190531;28;20465;-61
2022/03/26 06:57:54;;;;;;;58.70;26.57;;;7.60;70.60;;;;;;4191972;28;20371;-62
2022/03/26 06:59:55;;;;;;;61.40;30.10;;;7.80;70.50;;;;;;4174889;28;20052;-61
2022/03/26 07:01:56;;;;;;;58.20;30.03;;;7.50;70.70;;;;;;4158352;28;20033;-58
2022/03/26 07:03:59;;;;;;;56.47;30.10;;;7.30;71.00;;;;;;4157321;28;20148;-61
2022/03/26 07:06:00;;;;;;;69.20;31.27;;;7.30;71.00;;;;;;4157558;28;20096;-55
2022/03/26 07:08:03;;;;;;;49.33;28.67;;;7.20;71.20;;;;;;4157052;28;20424;-62
2022/03/26 07:10:04;;;;;;;53.17;27.30;;;7.40;71.10;;;;;;4158002;28;20087;-57
2022/03/26 07:12:06;;;;;;;52.80;26.20;;;7.40;70.50;;;;;;4157941;28;20042;-60
2022/03/26 07:14:07;;;;;;;44.40;25.77;;;7.70;70.20;;;;;;4158358;28;20041;-57
2022/03/26 07:16:09;;;;;;;53.13;25.30;;;7.90;69.60;;;;;;4158814;28;20080;-58
2022/03/26 07:18:11;;;;;;;57.67;25.13;;;7.70;69.70;;;;;;4173032;28;20110;-59
2022/03/26 07:20:14;;;;;;;53.27;24.47;;;7.90;69.50;;;;;;4174262;28;20122;-59
2022/03/26 07:22:15;;;;;;;45.10;21.93;;;8.00;69.40;;;;;;4173840;28;20557;-57
2022/03/26 07:24:16;;;;;;;45.97;23.03;;;8.50;68.80;;;;;;4174874;28;20094;-63
2022/03/26 07:26:18;;;;;;;45.60;22.13;;;8.90;67.50;;;;;;4173732;28;20036;-59
2022/03/26 07:28:19;;;;;;;44.47;21.47;;;9.20;67.20;;;;;;4174460;28;20102;-59
2022/03/26 07:30:21;;;;;;;43.53;20.73;;;9.70;66.20;;;;;;4173321;28;20118;-57
2022/03/26 07:32:23;;;;;;;42.03;20.80;;;9.70;65.10;;;;;;4172487;28;20071;-59
2022/03/26 07:34:26;;;;;;;39.07;20.50;;;9.70;64.90;;;;;;4173222;28;20021;-55
2022/03/26 07:36:27;;;;;;;40.03;20.63;;;9.30;64.70;;;;;;4169202;28;20049;-57
2022/03/26 07:38:28;;;;;;;38.57;20.93;;;8.90;64.70;;;;;;4156481;28;20037;-59
2022/03/26 07:40:29;;;;;;;42.13;21.30;;;8.60;65.40;;;;;;4157034;28;20099;-57
2022/03/26 07:42:30;;;;;;;40.53;19.50;;;8.60;66.30;;;;;;4157688;28;20551;-58
2022/03/26 07:44:32;;;;;;;43.67;20.43;;;9.10;66.40;;;;;;4156845;28;20323;-56
2022/03/26 07:46:33;;;;;;;38.57;18.07;;;9.30;65.40;;;;;;4157929;28;20066;-59
2022/03/26 07:48:34;;;;;;;37.80;18.07;;;9.20;64.70;;;;;;4156495;28;20091;-58
2022/03/26 07:50:36;;;;;;;40.40;17.70;;;9.30;64.50;;;;;;4157057;28;20088;-59
2022/03/26 07:52:37;;;;;;;39.50;18.50;;;9.40;64.10;;;;;;4156729;28;20022;-60
2022/03/26 07:54:39;;;;;;;32.80;17.60;;;9.40;63.80;;;;;;4156917;28;20063;-60
2022/03/26 07:56:40;;;;;;;39.47;18.57;;;9.40;63.20;;;;;;4156802;28;20091;-62
2022/03/26 07:58:42;;;;;;;31.07;16.80;;;9.40;63.40;;;;;;4172738;28;20140;-60
2022/03/26 08:00:43;;;;;;;31.70;17.00;;;9.50;63.20;;;;;;4172198;28;20497;-59
2022/03/26 08:02:44;;;;;;;40.77;18.50;;;9.70;63.10;;;;;;4173948;28;20029;-59
2022/03/26 08:04:46;;;;;;;34.63;16.37;;;10.00;63.00;;;;;;4170952;28;20481;-64
2022/03/26 08:06:47;;;;;;;31.53;16.53;;;10.10;62.30;;;;;;4173953;28;20037;-59
2022/03/26 08:08:48;;;;;;;29.43;15.80;;;10.20;61.90;;;;;;4170140;28;20114;-61
2022/03/26 08:10:50;;;;;;;38.73;15.30;;;10.20;61.10;;;;;;4173125;28;20098;-61
2022/03/26 08:12:51;;;;;;;30.77;15.47;;;10.20;61.10;;;;;;4172606;28;20025;-65
2022/03/26 08:14:52;;;;;;;28.00;14.57;;;10.20;61.40;;;;;;4156887;28;20042;-60
2022/03/26 08:16:53;;;;;;;28.83;14.63;;;10.10;60.70;;;;;;4156769;28;20584;-60
2022/03/26 08:18:54;;;;;;;27.27;14.73;;;10.20;61.00;;;;;;4158676;28;20037;-60
2022/03/26 08:20:56;;;;;;;29.13;14.57;;;10.30;60.50;;;;;;4173119;28;20432;-59
2022/03/26 08:22:58;;;;;;;31.70;14.63;;;10.40;59.80;;;;;;4172358;28;20037;-58
2022/03/26 08:25:00;;;;;;;28.93;14.57;;;10.50;60.10;;;;;;4175184;28;20033;-58
2022/03/26 08:27:03;;;;;;;32.67;13.93;;;10.50;59.80;;;;;;4178234;28;20110;-58
2022/03/26 08:29:04;;;;;;;25.90;14.00;;;10.50;59.10;;;;;;4177476;28;20049;-59
2022/03/26 08:31:10;;;;;;;30.40;14.67;;;10.50;59.10;;;;;;4171992;28;20094;-59
2022/03/26 08:33:11;;;;;;;27.80;13.60;;;10.50;59.30;;;;;;4173590;28;20033;-59
2022/03/26 08:35:12;;;;;;;30.53;13.90;;;10.70;59.10;;;;;;4172018;28;20040;-58
2022/03/26 08:37:13;;;;;;;25.63;14.10;;;10.70;58.50;;;;;;4173784;28;20393;-60
2022/03/26 08:39:15;;;;;;;27.57;14.50;;;10.80;58.40;;;;;;4171029;28;20098;-60
2022/03/26 08:41:19;;;;;;;30.07;14.77;;;10.90;58.10;;;;;;4176359;28;20032;-60
2022/03/26 08:43:20;;;;;;;24.73;13.67;;;11.10;58.10;;;;;;4172189;28;20036;-56
2022/03/26 08:45:23;;;;;;;26.13;12.43;;;11.20;57.30;;;;;;4173313;28;20106;-59
2022/03/26 08:47:24;;;;;;;26.37;13.80;;;11.30;56.60;;;;;;4182083;28;20455;-60
2022/03/26 08:49:28;;;;;;;23.43;14.30;;;11.30;56.70;;;;;;4204066;28;20536;-61
2022/03/26 08:51:29;;;;;;;26.67;13.57;;;11.40;56.70;;;;;;4189517;28;20037;-59
2022/03/26 08:53:30;;;;;;;22.33;13.23;;;11.30;56.70;;;;;;4188494;28;20538;-64
2022/03/26 08:55:31;;;;;;;22.17;12.97;;;11.30;56.60;;;;;;4190128;28;20086;-61
2022/03/26 08:57:32;;;;;;;25.50;14.03;;;11.20;56.60;;;;;;4188677;28;20389;-57
2022/03/26 08:59:34;;;;;;;31.60;14.07;;;11.30;56.80;;;;;;4180707;28;20053;-60
2022/03/26 09:01:35;;;;;;;23.53;12.53;;;11.70;56.60;;;;;;4172345;28;20711;-58
2022/03/26 09:03:40;;;;;;;26.57;13.17;;;12.30;56.00;;;;;;4173296;28;20646;-60
2022/03/26 09:05:41;;;;;;;28.73;13.60;;;12.30;55.40;;;;;;4172442;28;20033;-59
2022/03/26 09:07:42;;;;;;;25.97;14.10;;;12.40;55.10;;;;;;4173055;28;20094;-59
2022/03/26 09:09:44;;;;;;;27.50;14.37;;;12.50;55.00;;;;;;4173973;28;20132;-59
2022/03/26 09:11:45;;;;;;;28.63;13.47;;;12.50;55.70;;;;;;4173657;28;20079;-57
2022/03/26 09:13:46;;;;;;;24.83;14.00;;;12.80;54.90;;;;;;4179947;28;20436;-63
2022/03/26 09:15:47;;;;;;;24.63;14.13;;;13.00;54.40;;;;;;4189637;28;20098;-59
2022/03/26 09:17:48;;;;;;;28.57;13.90;;;13.00;54.20;;;;;;4177131;28;20579;-59
2022/03/26 09:19:49;;;;;;;25.37;13.23;;;13.20;54.00;;;;;;4184828;28;20049;-59
2022/03/26 09:21:51;;;;;;;24.67;13.57;;;13.20;53.80;;;;;;4188751;28;20086;-64
2022/03/26 09:23:52;;;;;;;23.67;13.07;;;13.00;53.80;;;;;;4188085;28;20117;-63
2022/03/26 09:25:53;;;;;;;24.87;13.80;;;13.10;54.20;;;;;;4174766;28;20044;-60
2022/03/26 09:27:54;;;;;;;26.40;13.73;;;13.10;53.90;;;;;;4171687;28;20033;-66
2022/03/26 09:29:55;;;;;;;23.47;12.77;;;13.10;53.70;;;;;;4185226;28;20442;-62
2022/03/26 09:31:56;;;;;;;26.90;14.07;;;13.30;54.40;;;;;;4188150;28;20546;-57
2022/03/26 09:33:58;;;;;;;22.23;12.63;;;13.50;53.80;;;;;;4189219;28;20044;-60
2022/03/26 09:35:59;;;;;;;20.87;12.57;;;13.40;53.30;;;;;;4188863;28;20028;-59
2022/03/26 09:38:00;;;;;;;29.67;13.77;;;13.30;53.60;;;;;;4189489;28;20036;-58
2022/03/26 09:40:02;;;;;;;26.13;13.50;;;13.30;53.70;;;;;;4188558;28;20048;-60
2022/03/26 09:42:05;;;;;;;26.60;11.60;;;13.50;53.70;;;;;;4176037;28;20501;-59
2022/03/26 09:44:06;;;;;;;24.83;11.80;;;13.50;53.40;;;;;;4171866;28;20571;-61
2022/03/26 09:46:07;;;;;;;19.27;11.17;;;13.50;53.50;;;;;;4171950;28;20029;-58
2022/03/26 09:48:09;;;;;;;29.13;13.07;;;13.50;53.60;;;;;;4171885;28;20127;-58
2022/03/26 09:50:11;;;;;;;25.93;13.27;;;13.50;53.60;;;;;;4171088;28;20098;-59
2022/03/26 09:52:13;;;;;;;28.50;14.40;;;13.50;53.50;;;;;;4173729;28;20045;-66
2022/03/26 09:54:15;;;;;;;31.50;13.10;;;13.70;53.60;;;;;;4187674;28;20536;-59
2022/03/26 09:56:17;;;;;;;21.77;12.67;;;13.80;53.30;;;;;;4175273;28;20493;-60
2022/03/26 09:58:18;;;;;;;21.10;12.17;;;13.70;53.20;;;;;;4174025;28;20422;-57
2022/03/26 10:00:20;;;;;;;26.10;13.03;;;13.80;53.50;;;;;;4175432;28;20041;-59
2022/03/26 10:02:21;;;;;;;25.43;13.17;;;13.90;53.40;;;;;;4174223;28;20073;-63
2022/03/26 10:04:23;;;;;;;21.50;11.73;;;14.00;53.20;;;;;;4183635;28;20062;-63
2022/03/26 10:06:25;;;;;;;20.87;11.00;;;13.90;53.20;;;;;;4191087;28;20109;-60
2022/03/26 10:08:26;;;;;;;20.57;12.30;;;13.90;53.60;;;;;;4190407;28;20145;-58
2022/03/26 10:10:27;;;;;;;22.10;10.83;;;13.90;53.70;;;;;;4190887;28;20078;-61
2022/03/26 10:12:28;;;;;;;19.57;9.80;;;13.90;53.80;;;;;;4179019;28;20041;-59
2022/03/26 10:14:57;;;;;;;18.23;10.00;;;13.90;54.10;;;;;;4173495;28;20511;-59
2022/03/26 10:16:58;;;;;;;20.13;12.57;;;14.00;54.30;;;;;;4173151;28;20067;-55
2022/03/26 10:19:00;;;;;;;25.63;10.90;;;14.10;53.90;;;;;;4173741;28;20498;-58